Time;durP1;ratioP1;P1;durP2;ratioP2;P2;SDS_P1;SDS_P2;PMS_P1;PMS_P2;Temp;Humidity;BMP_temperature;BMP_pressure;BME280_temperature;BME280_humidity;BME280_pressure;Samples;Min_cycle;Max_cycle;Signal;HPM_P1;HPM_P2
2022/10/14 00:00:22;;;;;;;4.83;4.33;;;15.80;99.90;;;;;;5045604;28;20566;-83
2022/10/14 00:02:48;;;;;;;6.03;5.23;;;15.80;99.90;;;;;;5042343;28;20174;-83
2022/10/14 00:05:14;;;;;;;6.33;5.57;;;15.80;99.90;;;;;;5042530;28;20186;-83
2022/10/14 00:07:40;;;;;;;5.20;4.40;;;15.80;99.90;;;;;;5046165;28;20587;-83
2022/10/14 00:10:06;;;;;;;5.20;4.70;;;15.70;99.90;;;;;;5046970;28;20182;-83
2022/10/14 00:12:33;;;;;;;5.47;4.97;;;15.70;99.90;;;;;;5044876;28;20213;-83
2022/10/14 00:14:59;;;;;;;9.07;5.13;;;15.70;99.90;;;;;;5042168;28;20983;-83
2022/10/14 00:17:25;;;;;;;5.67;5.13;;;15.70;99.90;;;;;;5040243;28;20572;-84
2022/10/14 00:19:51;;;;;;;6.67;5.33;;;15.70;99.90;;;;;;5036887;28;20991;-84
2022/10/14 00:22:17;;;;;;;5.27;4.77;;;15.70;99.90;;;;;;5035301;28;20657;-84
2022/10/14 00:24:43;;;;;;;4.87;4.03;;;15.70;99.90;;;;;;5041136;28;20166;-84
2022/10/14 00:27:08;;;;;;;7.07;5.27;;;15.70;99.90;;;;;;5041043;28;20174;-85
2022/10/14 00:29:34;;;;;;;5.97;5.40;;;15.80;99.90;;;;;;5042891;28;20177;-85
2022/10/14 00:32:00;;;;;;;5.90;5.17;;;15.80;99.90;;;;;;5023997;28;20177;-85
2022/10/14 00:34:26;;;;;;;7.17;5.30;;;15.80;99.90;;;;;;5034006;28;20209;-84
2022/10/14 00:36:53;;;;;;;5.27;4.77;;;15.80;99.90;;;;;;5034747;28;20984;-85
2022/10/14 00:39:19;;;;;;;6.00;5.50;;;15.70;99.90;;;;;;5034394;28;20576;-86
2022/10/14 00:41:46;;;;;;;6.17;5.57;;;15.70;99.90;;;;;;5034201;28;20618;-85
2022/10/14 00:44:12;;;;;;;7.37;4.83;;;15.60;99.90;;;;;;5032894;28;20185;-84
2022/10/14 00:46:42;;;;;;;6.47;5.07;;;15.60;99.90;;;;;;5041559;28;20622;-84
2022/10/14 00:49:15;;;;;;;9.47;5.93;;;15.60;99.90;;;;;;5029340;28;20268;-84
2022/10/14 00:51:55;;;;;;;4.90;4.40;;;15.50;99.90;;;;;;5029146;28;21115;-84
2022/10/14 00:54:27;;;;;;;7.10;5.83;;;15.50;99.90;;;;;;5013622;28;20763;-84
2022/10/14 00:56:52;;;;;;;6.30;5.70;;;15.50;99.90;;;;;;5012401;28;20617;-85
2022/10/14 00:59:18;;;;;;;6.00;5.50;;;15.40;99.90;;;;;;5013924;28;20566;-85
2022/10/14 01:01:44;;;;;;;7.30;5.80;;;15.50;99.90;;;;;;5013723;28;20254;-83
2022/10/14 01:04:10;;;;;;;7.17;5.70;;;15.40;99.90;;;;;;5012262;28;20728;-84
2022/10/14 01:06:54;;;;;;;6.80;6.10;;;15.40;99.90;;;;;;5030729;28;20194;-83
2022/10/14 01:09:44;;;;;;;5.77;5.17;;;15.40;99.90;;;;;;5012528;28;20612;-85
2022/10/14 01:12:25;;;;;;;6.53;5.30;;;15.40;99.90;;;;;;5028768;28;20577;-84
2022/10/14 01:15:33;;;;;;;6.80;4.63;;;15.40;99.90;;;;;;5033309;28;21216;-84
2022/10/14 01:18:23;;;;;;;5.53;4.93;;;15.50;99.90;;;;;;5000981;28;21014;-84
2022/10/14 01:21:08;;;;;;;5.23;4.63;;;15.50;99.90;;;;;;5013517;28;20612;-84
2022/10/14 01:24:24;;;;;;;6.90;4.73;;;15.50;99.90;;;;;;5011883;28;20565;-83
2022/10/14 01:27:31;;;;;;;8.20;4.93;;;15.50;99.90;;;;;;5004004;28;20636;-84
2022/10/14 01:30:07;;;;;;;6.43;4.90;;;15.50;99.90;;;;;;5012026;28;20652;-84
2022/10/14 01:32:55;;;;;;;5.57;5.00;;;15.50;99.90;;;;;;5027679;28;20561;-83
2022/10/14 01:35:20;;;;;;;6.40;4.77;;;15.50;99.90;;;;;;5028228;28;20602;-83
2022/10/14 01:38:31;;;;;;;6.60;5.97;;;15.50;99.90;;;;;;5028382;28;20568;-83
2022/10/14 01:41:03;;;;;;;5.63;5.07;;;15.50;99.90;;;;;;5027828;28;20569;-83
2022/10/14 01:43:32;;;;;;;6.50;5.30;;;15.50;99.90;;;;;;5011443;28;21339;-83
2022/10/14 01:46:02;;;;;;;6.23;5.63;;;15.50;99.90;;;;;;5012659;28;20611;-82
2022/10/14 01:48:32;;;;;;;6.47;5.83;;;15.50;99.90;;;;;;5027961;28;20566;-83
2022/10/14 01:51:01;;;;;;;6.53;5.30;;;15.50;99.90;;;;;;5034325;28;20593;-83
2022/10/14 01:53:41;;;;;;;6.53;5.93;;;15.50;99.90;;;;;;5028235;28;20624;-84
2022/10/14 01:56:08;;;;;;;8.20;6.80;;;15.50;99.90;;;;;;5011314;28;21204;-85
2022/10/14 01:58:36;;;;;;;5.37;4.77;;;15.50;99.90;;;;;;5027959;28;20570;-85
2022/10/14 02:01:04;;;;;;;6.27;5.67;;;15.50;99.90;;;;;;5028009;28;20616;-85
2022/10/14 02:03:44;;;;;;;6.20;5.60;;;15.50;99.90;;;;;;5011212;28;20609;-85
2022/10/14 02:06:16;;;;;;;6.70;6.00;;;15.50;99.90;;;;;;5039516;23;20659;-78
2022/10/14 02:09:28;;;;;;;10.67;6.33;;;15.50;99.90;;;;;;5043774;28;20583;-78
2022/10/14 02:12:00;;;;;;;7.50;5.80;;;15.50;99.90;;;;;;4999970;28;20631;-78
2022/10/14 02:14:39;;;;;;;6.70;6.03;;;15.50;99.90;;;;;;5053761;28;20722;-78
2022/10/14 02:17:16;;;;;;;7.83;6.10;;;15.50;99.90;;;;;;5050594;28;21378;-78
2022/10/14 02:20:07;;;;;;;6.30;5.70;;;15.50;99.90;;;;;;5050698;28;20957;-78
2022/10/14 02:22:39;;;;;;;6.87;6.00;;;15.40;99.90;;;;;;5050113;28;20564;-79
2022/10/14 02:25:33;;;;;;;5.90;5.30;;;15.50;99.90;;;;;;5051797;28;20560;-78
2022/10/14 02:28:01;;;;;;;6.93;5.30;;;15.50;99.90;;;;;;5026396;28;20584;-78
2022/10/14 02:30:31;;;;;;;6.60;5.73;;;15.50;99.90;;;;;;5030506;28;20564;-78
2022/10/14 02:32:59;;;;;;;7.97;5.53;;;15.60;99.90;;;;;;5031374;28;20651;-78
2022/10/14 02:35:29;;;;;;;6.70;5.23;;;15.60;99.90;;;;;;5030420;28;20574;-79
2022/10/14 02:37:57;;;;;;;5.10;4.60;;;15.70;99.90;;;;;;5031576;28;20596;-79
2022/10/14 02:40:32;;;;;;;5.87;5.33;;;15.70;99.90;;;;;;5031565;28;20567;-79
2022/10/14 02:42:58;;;;;;;7.57;4.90;;;15.70;99.90;;;;;;5030019;28;20576;-79
2022/10/14 02:45:26;;;;;;;6.23;5.00;;;15.70;99.90;;;;;;5031225;28;20559;-79
2022/10/14 02:47:52;;;;;;;5.47;4.97;;;15.80;99.90;;;;;;5031570;28;20565;-78
2022/10/14 02:50:18;;;;;;;7.10;4.60;;;15.70;99.90;;;;;;5035822;28;20560;-78
2022/10/14 02:52:44;;;;;;;4.93;4.43;;;15.80;99.90;;;;;;5014369;28;20624;-78
2022/10/14 02:55:10;;;;;;;6.77;5.50;;;15.70;99.90;;;;;;5013909;28;20584;-77
2022/10/14 02:57:37;;;;;;;7.20;4.90;;;15.70;99.90;;;;;;5013948;28;20597;-77
2022/10/14 03:00:06;;;;;;;5.27;4.50;;;15.80;99.90;;;;;;5030339;28;20564;-77
2022/10/14 03:02:34;;;;;;;5.07;4.43;;;15.80;99.90;;;;;;5029855;28;20174;-77
2022/10/14 03:05:00;;;;;;;5.93;5.33;;;15.80;99.90;;;;;;5013615;28;20662;-77
2022/10/14 03:07:27;;;;;;;5.00;4.40;;;15.80;99.90;;;;;;5030335;28;20636;-77
2022/10/14 03:09:57;;;;;;;4.70;4.20;;;15.80;99.90;;;;;;5013867;28;20576;-77
2022/10/14 03:12:24;;;;;;;6.27;4.93;;;15.80;99.90;;;;;;5029638;28;20941;-76
2022/10/14 03:14:50;;;;;;;5.73;5.13;;;15.80;99.90;;;;;;5030042;28;20580;-77
2022/10/14 03:17:17;;;;;;;5.93;4.63;;;15.80;99.90;;;;;;5030060;28;20612;-78
2022/10/14 03:19:44;;;;;;;5.03;4.63;;;15.80;99.90;;;;;;5029982;28;21173;-78
2022/10/14 03:22:11;;;;;;;4.73;4.03;;;15.80;99.90;;;;;;5029720;28;20924;-78
2022/10/14 03:24:38;;;;;;;4.60;4.20;;;15.80;99.90;;;;;;5013854;28;20580;-78
2022/10/14 03:27:23;;;;;;;5.30;4.43;;;15.80;99.90;;;;;;5035150;28;20941;-77
2022/10/14 03:29:53;;;;;;;4.77;4.27;;;15.80;99.90;;;;;;5030167;28;20676;-77
2022/10/14 03:32:22;;;;;;;6.40;4.37;;;15.80;99.90;;;;;;5029578;28;20587;-77
2022/10/14 03:35:20;;;;;;;4.30;3.80;;;15.80;99.90;;;;;;5008247;28;20598;-78
2022/10/14 03:37:48;;;;;;;5.97;5.37;;;15.80;99.90;;;;;;5029895;28;20584;-79
2022/10/14 03:40:17;;;;;;;7.23;5.37;;;15.80;99.90;;;;;;5029808;28;21018;-78
2022/10/14 03:42:43;;;;;;;7.33;5.30;;;15.80;99.90;;;;;;5030735;28;20635;-78
2022/10/14 03:45:09;;;;;;;6.60;6.00;;;15.80;99.90;;;;;;5029989;28;20173;-77
2022/10/14 03:47:37;;;;;;;6.87;5.90;;;15.80;99.90;;;;;;5029649;28;20600;-78
2022/10/14 03:50:04;;;;;;;5.23;4.73;;;15.70;99.90;;;;;;5029813;28;20584;-78
2022/10/14 03:52:42;;;;;;;6.80;5.10;;;15.70;99.90;;;;;;5029790;28;20259;-79
2022/10/14 03:55:16;;;;;;;6.77;4.77;;;15.80;99.90;;;;;;5029973;28;20567;-77
2022/10/14 03:57:45;;;;;;;5.93;5.40;;;15.80;99.90;;;;;;5016192;28;21242;-78
2022/10/14 04:00:12;;;;;;;6.43;4.67;;;15.80;99.90;;;;;;5033388;28;20571;-78
2022/10/14 04:02:41;;;;;;;5.50;4.60;;;15.70;99.90;;;;;;5034270;28;20626;-78
2022/10/14 04:05:17;;;;;;;6.47;5.00;;;15.80;99.90;;;;;;5036788;28;20637;-78
2022/10/14 04:07:46;;;;;;;3.67;3.37;;;15.80;99.90;;;;;;5033031;28;20687;-78
2022/10/14 04:10:12;;;;;;;6.60;4.40;;;15.80;99.90;;;;;;5016463;28;21215;-78
2022/10/14 04:12:43;;;;;;;5.70;4.50;;;15.80;99.90;;;;;;5032642;28;20643;-78
2022/10/14 04:15:19;;;;;;;4.77;4.27;;;15.80;99.90;;;;;;5032878;28;21001;-78
2022/10/14 04:18:10;;;;;;;5.53;3.83;;;15.80;99.90;;;;;;5031992;28;20592;-78
2022/10/14 04:20:38;;;;;;;3.97;3.27;;;15.80;99.90;;;;;;5032746;28;20626;-78
2022/10/14 04:23:06;;;;;;;4.27;3.87;;;15.80;99.90;;;;;;5032372;28;20683;-73
2022/10/14 04:25:33;;;;;;;5.33;3.93;;;15.80;99.90;;;;;;5032693;28;20838;-73
2022/10/14 04:28:02;;;;;;;4.13;3.73;;;15.80;99.90;;;;;;5015975;28;20592;-73
2022/10/14 04:30:40;;;;;;;5.00;3.40;;;15.80;99.90;;;;;;5032658;28;20584;-73
2022/10/14 04:33:09;;;;;;;4.00;3.60;;;15.80;99.90;;;;;;5031970;28;20643;-74
2022/10/14 04:35:36;;;;;;;3.73;3.43;;;15.80;99.90;;;;;;5032527;28;20650;-73
2022/10/14 04:38:05;;;;;;;4.53;4.10;;;15.80;99.90;;;;;;5015921;28;20755;-74
2022/10/14 04:40:30;;;;;;;3.10;2.80;;;15.90;99.90;;;;;;5032537;28;20668;-74
2022/10/14 04:42:57;;;;;;;3.87;3.50;;;15.90;99.90;;;;;;5035657;28;20180;-73
2022/10/14 04:45:31;;;;;;;6.57;3.00;;;15.90;99.90;;;;;;5032463;28;20595;-73
2022/10/14 04:48:00;;;;;;;3.67;3.10;;;15.90;99.90;;;;;;5032272;28;20577;-73
2022/10/14 04:50:27;;;;;;;3.57;3.03;;;16.00;99.90;;;;;;5032194;28;20599;-73
2022/10/14 04:53:11;;;;;;;7.00;6.10;;;15.90;99.90;;;;;;5032978;28;20631;-73
2022/10/14 04:55:45;;;;;;;3.60;3.13;;;16.00;99.90;;;;;;5032287;28;20600;-73
2022/10/14 04:58:12;;;;;;;3.87;3.50;;;16.00;99.90;;;;;;5032139;28;20576;-73
2022/10/14 05:00:41;;;;;;;3.10;2.80;;;16.00;99.90;;;;;;5032246;28;20578;-75
2022/10/14 05:03:25;;;;;;;5.20;2.70;;;16.00;99.90;;;;;;5032724;28;20607;-74
2022/10/14 05:05:51;;;;;;;5.90;2.70;;;16.00;99.90;;;;;;5031740;28;21202;-74
2022/10/14 05:08:18;;;;;;;4.17;2.90;;;16.00;99.90;;;;;;5031681;28;20628;-73
2022/10/14 05:10:47;;;;;;;3.97;2.97;;;16.00;99.90;;;;;;5031856;28;20608;-74
2022/10/14 05:13:21;;;;;;;2.43;2.13;;;16.00;99.90;;;;;;5031242;28;20620;-74
2022/10/14 05:15:57;;;;;;;4.30;2.90;;;16.00;99.90;;;;;;5031688;28;20695;-75
2022/10/14 05:18:23;;;;;;;3.43;3.13;;;16.00;99.90;;;;;;5033791;28;20721;-75
2022/10/14 05:20:58;;;;;;;4.07;2.73;;;16.00;99.90;;;;;;5032325;28;20579;-74
2022/10/14 05:23:31;;;;;;;4.43;3.03;;;16.00;99.90;;;;;;5031385;28;20587;-74
2022/10/14 05:25:58;;;;;;;3.37;2.70;;;16.00;99.90;;;;;;5031264;28;20608;-74
2022/10/14 05:28:25;;;;;;;4.67;2.90;;;16.00;99.90;;;;;;5031468;28;20607;-74
2022/10/14 05:30:51;;;;;;;2.50;2.30;;;16.00;99.90;;;;;;5031134;28;20695;-74
2022/10/14 05:33:18;;;;;;;3.00;2.30;;;16.00;99.90;;;;;;5030698;28;20670;-75
2022/10/14 05:35:44;;;;;;;2.87;2.30;;;16.00;99.90;;;;;;5024908;28;20636;-75
2022/10/14 05:38:13;;;;;;;3.77;2.80;;;16.00;99.90;;;;;;5026715;28;20592;-75
2022/10/14 05:40:42;;;;;;;2.70;2.50;;;16.00;99.90;;;;;;5029441;28;21187;-75
2022/10/14 05:43:08;;;;;;;3.60;2.67;;;16.00;99.90;;;;;;5022464;28;20592;-75
2022/10/14 05:45:37;;;;;;;4.00;2.50;;;16.00;99.90;;;;;;5030765;28;20685;-75
2022/10/14 05:48:04;;;;;;;2.50;2.30;;;16.00;99.90;;;;;;5030854;28;21040;-75
2022/10/14 05:50:29;;;;;;;3.57;2.47;;;16.00;99.90;;;;;;5032108;28;20185;-75
2022/10/14 05:53:00;;;;;;;3.97;2.90;;;16.00;99.90;;;;;;5030167;28;21011;-75
2022/10/14 05:55:34;;;;;;;3.30;3.00;;;16.00;99.90;;;;;;5015304;28;20692;-75
2022/10/14 05:58:01;;;;;;;2.40;2.20;;;16.00;99.90;;;;;;5030793;28;20675;-74
2022/10/14 06:00:32;;;;;;;3.30;3.00;;;16.00;99.90;;;;;;5030675;28;20739;-76
2022/10/14 06:03:03;;;;;;;3.63;3.33;;;16.00;99.90;;;;;;5014568;28;20608;-76
2022/10/14 06:05:30;;;;;;;3.70;3.10;;;16.00;99.90;;;;;;5014342;28;20608;-75
2022/10/14 06:07:56;;;;;;;5.10;3.40;;;16.00;99.90;;;;;;5051909;28;20694;-74
2022/10/14 06:10:22;;;;;;;4.43;3.63;;;16.00;99.90;;;;;;5051395;28;20923;-73
2022/10/14 06:12:47;;;;;;;4.10;3.33;;;16.10;99.90;;;;;;5022844;28;20773;-73
2022/10/14 06:15:13;;;;;;;3.23;2.93;;;16.10;99.90;;;;;;5033546;28;20173;-74
2022/10/14 06:17:40;;;;;;;3.93;3.43;;;16.10;99.90;;;;;;5052173;28;20204;-76
2022/10/14 06:20:09;;;;;;;5.00;2.97;;;16.00;99.90;;;;;;5035180;28;20579;-76
2022/10/14 06:22:35;;;;;;;3.83;2.80;;;16.00;99.90;;;;;;5054157;28;21331;-75
2022/10/14 06:25:00;;;;;;;3.60;3.20;;;16.00;99.90;;;;;;5051675;28;20585;-75
2022/10/14 06:27:27;;;;;;;3.63;2.63;;;16.00;99.90;;;;;;5052455;28;20591;-75
2022/10/14 06:29:52;;;;;;;4.73;3.33;;;16.00;99.90;;;;;;5034119;28;20196;-75
2022/10/14 06:32:18;;;;;;;3.53;3.23;;;16.00;99.90;;;;;;5052935;28;20568;-75
2022/10/14 06:34:44;;;;;;;3.60;3.00;;;15.90;99.90;;;;;;5055670;28;20257;-76
2022/10/14 06:37:10;;;;;;;6.60;3.47;;;15.90;99.90;;;;;;5052738;28;20208;-75
2022/10/14 06:39:36;;;;;;;3.93;3.30;;;15.90;99.90;;;;;;5035189;28;20563;-76
2022/10/14 06:42:02;;;;;;;3.90;3.50;;;15.80;99.90;;;;;;5049864;28;20950;-75
2022/10/14 06:44:28;;;;;;;4.13;3.47;;;15.80;99.90;;;;;;5047760;28;20595;-75
2022/10/14 06:46:54;;;;;;;6.97;3.80;;;15.80;99.90;;;;;;5052337;28;20619;-75
2022/10/14 06:49:20;;;;;;;5.03;3.90;;;15.80;99.90;;;;;;5054067;28;20633;-76
2022/10/14 06:51:46;;;;;;;3.93;3.00;;;15.80;99.90;;;;;;5052259;28;20579;-75
2022/10/14 06:54:11;;;;;;;5.80;3.27;;;15.80;99.90;;;;;;5053396;28;20621;-76
2022/10/14 06:56:37;;;;;;;4.33;3.83;;;15.80;99.90;;;;;;5051886;28;20181;-74
2022/10/14 06:59:04;;;;;;;7.00;4.87;;;15.80;99.90;;;;;;5033686;28;20223;-74
2022/10/14 07:01:30;;;;;;;5.60;3.47;;;15.80;99.90;;;;;;5051158;28;20230;-75
2022/10/14 07:03:56;;;;;;;4.53;3.77;;;15.80;99.90;;;;;;5040834;28;21200;-75
2022/10/14 07:06:21;;;;;;;5.10;3.83;;;15.80;99.90;;;;;;5031107;28;20807;-73
2022/10/14 07:08:47;;;;;;;4.90;3.70;;;15.80;99.90;;;;;;5032237;28;20176;-75
2022/10/14 07:11:13;;;;;;;4.93;3.70;;;15.70;99.90;;;;;;5050039;28;20187;-75
2022/10/14 07:13:38;;;;;;;4.53;3.60;;;15.70;99.90;;;;;;5050543;28;20826;-75
2022/10/14 07:16:05;;;;;;;3.47;3.17;;;15.70;99.90;;;;;;5049337;28;20186;-75
2022/10/14 07:18:31;;;;;;;7.70;4.30;;;15.70;99.90;;;;;;5049696;28;20595;-74
2022/10/14 07:21:02;;;;;;;3.83;3.43;;;15.70;99.90;;;;;;5057152;28;20562;-76
2022/10/14 07:23:27;;;;;;;3.70;3.33;;;15.70;99.90;;;;;;5057400;28;20629;-74
2022/10/14 07:25:56;;;;;;;4.53;4.13;;;15.70;99.90;;;;;;5051316;28;20603;-74
2022/10/14 07:28:22;;;;;;;4.80;3.80;;;15.70;99.90;;;;;;5051661;28;20181;-74
2022/10/14 07:31:06;;;;;;;3.50;3.10;;;15.60;99.90;;;;;;5050937;28;20667;-74
2022/10/14 07:33:33;;;;;;;4.70;4.03;;;15.60;99.90;;;;;;5036947;28;20626;-75
2022/10/14 07:36:04;;;;;;;5.50;4.37;;;15.70;99.90;;;;;;5054517;28;20599;-75
2022/10/14 07:38:30;;;;;;;3.97;3.67;;;15.70;99.90;;;;;;5054774;28;20597;-75
2022/10/14 07:41:03;;;;;;;4.57;4.17;;;15.70;99.90;;;;;;5054617;28;20629;-75
2022/10/14 07:43:31;;;;;;;5.43;4.90;;;15.80;99.90;;;;;;5038839;28;20537;-75
2022/10/14 07:46:01;;;;;;;4.37;3.23;;;15.80;99.90;;;;;;5041320;28;20622;-75
2022/10/14 07:48:28;;;;;;;4.30;3.50;;;15.80;99.90;;;;;;5044215;28;20623;-75
2022/10/14 07:50:54;;;;;;;4.93;4.30;;;15.80;99.90;;;;;;5058121;28;20583;-75
2022/10/14 07:53:21;;;;;;;4.67;4.23;;;15.90;99.90;;;;;;5056006;28;20635;-75
2022/10/14 07:55:51;;;;;;;4.40;3.70;;;15.90;99.90;;;;;;5037334;28;20953;-75
2022/10/14 07:58:29;;;;;;;6.27;4.50;;;15.90;99.90;;;;;;5037439;28;21302;-75
2022/10/14 08:00:56;;;;;;;4.73;4.23;;;15.90;99.90;;;;;;5055561;28;20571;-75
2022/10/14 08:03:23;;;;;;;5.40;4.63;;;16.00;99.90;;;;;;5055001;28;20573;-75
2022/10/14 08:05:49;;;;;;;6.83;6.17;;;16.00;99.90;;;;;;5054395;28;20611;-75
2022/10/14 08:08:17;;;;;;;5.70;4.90;;;16.00;99.90;;;;;;5054824;28;20575;-75
2022/10/14 08:10:43;;;;;;;6.57;5.10;;;16.00;99.90;;;;;;5054404;28;20618;-75
2022/10/14 08:13:09;;;;;;;6.03;4.30;;;16.00;99.90;;;;;;5054386;28;20665;-75
2022/10/14 08:15:39;;;;;;;6.40;4.50;;;16.10;99.90;;;;;;5055067;28;21189;-75
2022/10/14 08:18:10;;;;;;;7.00;4.43;;;16.10;99.90;;;;;;5054615;28;20560;-74
2022/10/14 08:20:36;;;;;;;6.00;4.40;;;16.10;99.90;;;;;;5054123;28;20575;-75
2022/10/14 08:23:02;;;;;;;7.30;4.27;;;16.20;99.90;;;;;;5036831;28;20992;-75
2022/10/14 08:25:28;;;;;;;5.70;4.20;;;16.20;99.90;;;;;;5059091;28;20603;-75
2022/10/14 08:27:56;;;;;;;5.10;4.60;;;16.30;99.90;;;;;;5054210;28;20601;-75
2022/10/14 08:30:22;;;;;;;10.03;4.50;;;16.30;99.90;;;;;;5055354;28;20173;-75
2022/10/14 08:32:48;;;;;;;4.63;4.20;;;16.40;99.90;;;;;;5053799;28;20714;-75
2022/10/14 08:35:13;;;;;;;5.70;4.93;;;16.50;99.90;;;;;;5054468;28;21039;-75
2022/10/14 08:37:39;;;;;;;6.40;4.30;;;16.50;99.90;;;;;;5053818;28;20181;-74
2022/10/14 08:40:06;;;;;;;8.43;3.90;;;16.50;99.90;;;;;;5019755;28;20175;-75
2022/10/14 08:42:42;;;;;;;6.03;4.40;;;16.60;99.90;;;;;;5053216;28;20176;-75
2022/10/14 08:45:21;;;;;;;4.27;3.77;;;16.60;99.90;;;;;;5053568;28;21118;-75
2022/10/14 08:47:47;;;;;;;4.37;3.97;;;16.70;99.90;;;;;;5054444;28;20623;-74
2022/10/14 08:50:48;;;;;;;4.87;4.17;;;16.70;99.90;;;;;;5053487;28;20585;-74
2022/10/14 08:53:23;;;;;;;3.60;3.30;;;16.80;99.90;;;;;;5020363;28;20974;-74
2022/10/14 08:55:53;;;;;;;4.67;4.20;;;16.90;99.90;;;;;;5053254;28;20602;-74
2022/10/14 08:58:40;;;;;;;4.03;3.23;;;17.00;99.90;;;;;;5053248;28;20570;-75
2022/10/14 09:01:28;;;;;;;4.17;3.73;;;17.00;99.90;;;;;;5055936;28;20655;-75
2022/10/14 09:03:58;;;;;;;4.40;3.27;;;17.00;99.90;;;;;;5053035;28;20586;-75
2022/10/14 09:06:26;;;;;;;5.73;4.70;;;17.10;99.90;;;;;;5052991;28;21249;-74
2022/10/14 09:08:58;;;;;;;3.97;3.57;;;17.20;99.90;;;;;;5053135;28;20588;-75
2022/10/14 09:11:27;;;;;;;3.80;3.13;;;17.20;99.90;;;;;;5052957;28;21145;-74
2022/10/14 09:13:59;;;;;;;3.57;3.27;;;17.30;99.90;;;;;;5052515;28;20637;-74
2022/10/14 09:16:33;;;;;;;4.77;3.97;;;17.30;99.90;;;;;;5052798;28;20648;-74
2022/10/14 09:19:32;;;;;;;4.40;3.50;;;17.30;99.90;;;;;;5052747;28;20567;-74
2022/10/14 09:22:00;;;;;;;4.90;3.60;;;17.40;99.90;;;;;;5018650;28;20993;-75
2022/10/14 09:24:34;;;;;;;5.50;4.60;;;17.40;99.90;;;;;;5052703;28;20610;-75
2022/10/14 09:27:09;;;;;;;3.40;3.10;;;17.40;99.90;;;;;;5052673;28;20605;-75
2022/10/14 09:29:49;;;;;;;3.67;2.77;;;17.40;99.90;;;;;;5052540;28;20568;-75
2022/10/14 09:32:27;;;;;;;6.10;4.60;;;17.50;99.90;;;;;;5052128;28;20560;-75
2022/10/14 09:34:54;;;;;;;5.90;4.80;;;17.50;99.90;;;;;;5034915;28;20683;-75
2022/10/14 09:37:27;;;;;;;5.70;3.83;;;17.60;99.90;;;;;;5052563;28;20640;-75
2022/10/14 09:39:57;;;;;;;6.60;3.83;;;17.60;99.90;;;;;;5055702;28;20756;-75
2022/10/14 09:43:00;;;;;;;9.00;4.40;;;17.70;99.90;;;;;;5052223;28;20907;-75
2022/10/14 09:45:34;;;;;;;4.20;3.40;;;17.80;99.90;;;;;;5021778;28;20656;-73
2022/10/14 09:48:06;;;;;;;5.40;3.43;;;17.80;99.90;;;;;;5052307;28;20699;-75
2022/10/14 09:50:47;;;;;;;3.50;3.20;;;17.90;99.90;;;;;;5052280;28;20571;-74
2022/10/14 09:53:22;;;;;;;4.60;3.70;;;18.00;99.90;;;;;;5051770;28;20676;-73
2022/10/14 09:55:55;;;;;;;5.90;3.33;;;18.10;99.90;;;;;;5051531;28;20622;-74
2022/10/14 09:58:34;;;;;;;4.83;3.67;;;18.10;99.90;;;;;;5052041;28;20571;-73
2022/10/14 10:01:01;;;;;;;3.83;3.10;;;18.20;99.90;;;;;;5052102;28;21212;-73
2022/10/14 10:03:32;;;;;;;4.90;4.30;;;18.30;99.90;;;;;;5051656;28;20567;-73
2022/10/14 10:06:07;;;;;;;6.23;3.47;;;18.40;99.90;;;;;;5051772;28;21057;-73
2022/10/14 10:08:40;;;;;;;5.33;4.30;;;18.50;99.90;;;;;;5051994;28;20571;-74
2022/10/14 10:11:12;;;;;;;6.17;3.50;;;18.60;99.90;;;;;;5051963;28;20621;-73
2022/10/14 10:13:45;;;;;;;5.00;3.90;;;18.70;99.90;;;;;;5051664;28;21096;-73
2022/10/14 10:16:24;;;;;;;5.33;3.73;;;18.80;99.90;;;;;;5034648;28;21190;-73
2022/10/14 10:18:54;;;;;;;7.83;4.07;;;18.80;99.90;;;;;;5052030;28;20658;-73
2022/10/14 10:21:28;;;;;;;4.93;4.10;;;18.90;99.90;;;;;;5033992;28;20563;-73
2022/10/14 10:23:55;;;;;;;4.53;3.47;;;18.90;99.90;;;;;;5033679;28;20670;-73
2022/10/14 10:26:25;;;;;;;4.50;4.00;;;18.90;99.90;;;;;;5051586;28;20595;-73
2022/10/14 10:28:53;;;;;;;5.37;4.03;;;18.90;99.90;;;;;;5051904;28;20563;-73
2022/10/14 10:31:47;;;;;;;8.70;3.73;;;18.80;99.90;;;;;;5051519;28;20775;-73
2022/10/14 10:34:33;;;;;;;5.23;4.13;;;18.90;99.90;;;;;;5033648;28;20615;-73
2022/10/14 10:37:23;;;;;;;6.83;4.70;;;18.70;99.90;;;;;;5033691;28;20611;-73
2022/10/14 10:39:55;;;;;;;4.97;4.37;;;18.80;99.90;;;;;;5051589;28;20599;-73
2022/10/14 10:43:00;;;;;;;5.20;4.33;;;18.80;99.90;;;;;;5048265;28;20691;-73
2022/10/14 10:45:32;;;;;;;5.37;4.87;;;18.70;99.90;;;;;;5041797;28;20597;-73
2022/10/14 10:48:14;;;;;;;4.47;4.03;;;18.60;99.90;;;;;;5041341;28;20587;-73
2022/10/14 10:51:06;;;;;;;9.20;4.40;;;18.60;99.90;;;;;;5062347;28;20594;-73
2022/10/14 10:53:55;;;;;;;9.60;4.67;;;18.70;99.90;;;;;;5032749;28;20624;-73
2022/10/14 10:56:44;;;;;;;6.73;5.13;;;18.70;99.90;;;;;;5020716;28;20612;-73
2022/10/14 10:59:32;;;;;;;6.90;5.13;;;18.60;99.90;;;;;;5031353;28;20567;-74
2022/10/14 11:02:32;;;;;;;8.07;5.50;;;18.60;99.90;;;;;;5031141;28;20571;-73
2022/10/14 11:05:26;;;;;;;6.97;4.60;;;18.50;99.90;;;;;;5031197;28;20706;-73
2022/10/14 11:14:39;;;;;;;5.47;4.93;;;18.40;99.90;;;;;;5034971;28;20620;-73
2022/10/14 11:17:13;;;;;;;7.37;5.10;;;18.40;99.90;;;;;;5035137;28;20734;-73
2022/10/14 11:19:59;;;;;;;7.50;6.17;;;18.40;99.90;;;;;;5017504;28;21128;-74
2022/10/14 11:22:56;;;;;;;6.70;5.90;;;18.40;99.90;;;;;;5016954;28;21131;-75
2022/10/14 11:25:34;;;;;;;5.83;5.20;;;18.30;99.90;;;;;;5035039;28;20565;-75
2022/10/14 11:28:24;;;;;;;7.37;6.67;;;18.40;99.90;;;;;;5001091;28;20671;-75
2022/10/14 11:31:15;;;;;;;7.27;5.83;;;18.40;99.90;;;;;;5035935;28;20622;-75
2022/10/14 11:34:05;;;;;;;7.03;5.87;;;18.40;99.90;;;;;;5016898;28;21234;-75
2022/10/14 11:36:39;;;;;;;8.80;6.67;;;18.40;99.90;;;;;;5017162;28;20608;-75
2022/10/14 11:39:25;;;;;;;6.80;6.00;;;18.50;99.90;;;;;;5034869;28;20659;-74
2022/10/14 11:42:00;;;;;;;7.43;6.50;;;18.60;99.90;;;;;;5016989;28;20935;-74
2022/10/14 11:44:37;;;;;;;9.27;8.13;;;18.60;99.90;;;;;;5000739;28;21225;-75
2022/10/14 11:47:21;;;;;;;5.83;5.30;;;18.70;99.90;;;;;;5017123;28;21163;-75
2022/10/14 11:49:58;;;;;;;7.90;5.73;;;18.70;99.90;;;;;;5016922;28;20572;-75
2022/10/14 11:52:28;;;;;;;7.33;5.33;;;18.60;99.90;;;;;;5034275;28;20570;-75
2022/10/14 11:55:05;;;;;;;6.80;6.20;;;18.70;99.90;;;;;;5034463;28;20623;-75
2022/10/14 11:57:35;;;;;;;6.87;6.20;;;18.70;99.90;;;;;;5034550;28;20635;-75
2022/10/14 12:00:06;;;;;;;8.00;5.80;;;18.70;99.90;;;;;;5016762;28;21147;-74
2022/10/14 12:02:55;;;;;;;7.20;6.47;;;18.70;99.90;;;;;;5034066;28;21116;-74
2022/10/14 12:05:55;;;;;;;7.00;6.30;;;18.60;99.90;;;;;;5016483;28;20572;-75
2022/10/14 12:08:31;;;;;;;6.57;5.87;;;18.60;99.90;;;;;;5004521;28;20587;-75
2022/10/14 12:11:30;;;;;;;5.90;5.40;;;18.70;99.90;;;;;;5034228;28;20556;-74
2022/10/14 12:14:21;;;;;;;7.03;6.47;;;18.60;99.90;;;;;;5002412;28;20639;-73
2022/10/14 12:16:48;;;;;;;6.23;5.03;;;18.60;99.90;;;;;;5033530;28;20604;-75
2022/10/14 12:19:28;;;;;;;6.80;6.20;;;18.70;99.90;;;;;;5034022;28;20564;-75
2022/10/14 12:22:18;;;;;;;8.07;6.03;;;18.60;99.90;;;;;;5016428;28;20675;-74
2022/10/14 12:24:57;;;;;;;8.40;7.10;;;18.60;99.90;;;;;;5034073;28;20576;-74
2022/10/14 12:27:25;;;;;;;8.43;7.63;;;18.60;99.90;;;;;;5016189;28;20631;-75
2022/10/14 12:29:54;;;;;;;6.93;6.20;;;18.60;99.90;;;;;;5033987;28;20599;-75
2022/10/14 12:32:30;;;;;;;5.60;5.10;;;18.70;99.90;;;;;;5033440;28;20608;-75
2022/10/14 12:35:00;;;;;;;5.90;5.30;;;18.70;99.90;;;;;;5033763;28;21163;-73
2022/10/14 12:37:36;;;;;;;5.70;5.20;;;18.70;99.90;;;;;;5033681;28;20596;-75
2022/10/14 12:40:05;;;;;;;6.37;5.77;;;18.70;99.90;;;;;;5033820;28;20847;-75
2022/10/14 12:42:50;;;;;;;6.03;5.20;;;18.70;99.90;;;;;;5037614;28;20568;-75
2022/10/14 12:45:20;;;;;;;6.13;5.53;;;18.70;99.90;;;;;;5041755;28;20859;-75
2022/10/14 12:47:46;;;;;;;6.30;5.70;;;18.70;99.90;;;;;;5024276;28;21158;-74
2022/10/14 12:50:17;;;;;;;6.17;5.50;;;18.70;99.90;;;;;;5033951;28;20568;-75
2022/10/14 12:52:45;;;;;;;8.03;5.80;;;18.70;99.90;;;;;;5015411;28;20568;-75
2022/10/14 12:55:20;;;;;;;8.30;5.70;;;18.70;99.90;;;;;;5016094;28;20622;-75
2022/10/14 12:58:01;;;;;;;7.77;6.03;;;18.70;99.90;;;;;;5033485;28;20917;-75
2022/10/14 13:00:30;;;;;;;7.00;6.17;;;18.70;99.90;;;;;;5033493;28;21312;-75
2022/10/14 13:03:00;;;;;;;6.10;5.50;;;18.70;99.90;;;;;;5032944;28;20552;-75
2022/10/14 13:05:35;;;;;;;12.57;10.30;;;18.70;99.90;;;;;;5015517;28;20564;-74
2022/10/14 13:08:22;;;;;;;9.20;8.00;;;18.80;99.90;;;;;;5033366;28;20564;-75
2022/10/14 13:11:11;;;;;;;8.27;7.43;;;18.70;99.90;;;;;;5033271;28;20592;-74
2022/10/14 13:13:37;;;;;;;10.23;8.00;;;18.80;99.90;;;;;;5042228;28;20930;-75
2022/10/14 13:16:23;;;;;;;9.27;7.80;;;18.80;99.90;;;;;;5052746;28;20629;-74
2022/10/14 13:18:58;;;;;;;13.57;9.80;;;18.90;99.90;;;;;;5022116;28;20184;-75
2022/10/14 13:21:30;;;;;;;9.50;7.67;;;19.00;99.90;;;;;;5038620;28;20681;-75